CheckWX is a tool to help pilots better visualize weather data.  It is not intended as a substitute for an official pre-flight weather briefing.

17:27:10 UTC

KTIK METAR
Tinker AFB Airport
Oklahoma City, Oklahoma, USA
Current

31 mins ago

KTIK 241656Z AUTO 33015KT 10SM CLR 06/M02 A3014 RMK AO2 SLP221 T00551019
Observed
Jan-24 @ 16:56 UTC
Wind
  • 330° at 15 KTS
Visibility
10 SM
Flight Rules
VFR
Cloud Levels
  • Clear skies
Temperature
C / 43°F
Dewpoint
-2°C / 28°F
Humidity
57%
Altimeter
30.14" Hg
Pressure
1020.62 hPa
Previous

2 hours ago

KTIK 241556Z AUTO 32015KT 10SM FEW023 04/M01 A3013 RMK AO2 SLP217 T00411015
Observed
Jan-24 @ 15:56 UTC
Wind
  • 320° at 15 KTS
Visibility
10 SM
Flight Rules
VFR
Cloud Levels
  • Few at 2,300' AGL
Temperature
C / 39°F
Dewpoint
-2°C / 28°F
Humidity
65%
Altimeter
30.13" Hg
Pressure
1020.32 hPa
Previous

3 hours ago

KTIK 241456Z AUTO 33011KT 10SM CLR 03/M02 A3012 RMK AO2 SLPNO T00261021 52021
Observed
Jan-24 @ 14:56 UTC
Wind
  • 330° at 11 KTS
Visibility
10 SM
Flight Rules
VFR
Cloud Levels
  • Clear skies
Temperature
C / 37°F
Dewpoint
-2°C / 28°F
Humidity
70%
Altimeter
30.12" Hg
Pressure
1020.02 hPa